Time;durP1;ratioP1;P1;durP2;ratioP2;P2;SDS_P1;SDS_P2;PMS_P1;PMS_P2;Temp;Humidity;BMP_temperature;BMP_pressure;BME280_temperature;BME280_humidity;BME280_pressure;Samples;Min_cycle;Max_cycle;Signal;HPM_P1;HPM_P2
2021/11/06 00:00:24;;;;;;;6.68;4.25;;;333.50;2329.60;;;;;;5051256;28;20536;-78
2021/11/06 00:02:50;;;;;;;11.75;7.00;;;333.40;2329.60;;;;;;5051053;28;20053;-76
2021/11/06 00:05:17;;;;;;;7.88;4.50;;;333.40;2329.60;;;;;;5052119;28;20478;-78
2021/11/06 00:07:43;;;;;;;7.20;4.68;;;333.30;2329.60;;;;;;5052528;28;20025;-76
2021/11/06 00:10:11;;;;;;;8.57;5.50;;;333.30;2329.60;;;;;;5051652;28;20028;-75
2021/11/06 00:12:38;;;;;;;8.45;5.78;;;333.30;2329.60;;;;;;5052428;28;20398;-76
2021/11/06 00:15:05;;;;;;;9.45;5.68;;;333.30;2329.60;;;;;;5051186;28;20025;-77
2021/11/06 00:17:31;;;;;;;7.80;3.92;;;333.30;2329.60;;;;;;5053045;28;20139;-75
2021/11/06 00:19:57;;;;;;;7.53;4.47;;;333.20;2329.60;;;;;;5051098;28;20536;-78
2021/11/06 00:22:23;;;;;;;7.40;4.68;;;333.30;2329.60;;;;;;5051090;28;20025;-76
2021/11/06 00:24:49;;;;;;;10.65;7.38;;;333.20;2329.60;;;;;;5048337;28;20145;-76
2021/11/06 00:27:15;;;;;;;8.05;4.38;;;333.20;2329.60;;;;;;5051293;28;20500;-76
2021/11/06 00:29:40;;;;;;;7.68;4.65;;;333.20;2329.60;;;;;;5051175;28;20024;-77
2021/11/06 00:32:07;;;;;;;6.25;3.67;;;333.20;2329.60;;;;;;5052033;28;20025;-77
2021/11/06 00:34:33;;;;;;;7.55;4.35;;;333.20;2329.60;;;;;;5052477;28;20047;-75
2021/11/06 00:36:59;;;;;;;6.65;4.43;;;333.10;2329.60;;;;;;5051116;28;20455;-77
2021/11/06 00:39:25;;;;;;;6.38;4.13;;;333.20;2329.60;;;;;;5050873;28;20025;-78
2021/11/06 00:41:51;;;;;;;5.72;3.85;;;333.20;2329.60;;;;;;5052885;28;20025;-75
2021/11/06 00:44:16;;;;;;;9.63;5.50;;;333.20;2329.60;;;;;;5052387;28;20107;-76
2021/11/06 00:46:42;;;;;;;11.70;6.40;;;333.20;2329.60;;;;;;5051952;28;20026;-76
2021/11/06 00:49:08;;;;;;;13.02;7.30;;;333.20;2329.60;;;;;;5051211;28;20020;-76
2021/11/06 00:51:34;;;;;;;6.15;3.75;;;333.20;2329.60;;;;;;5052141;28;20074;-78
2021/11/06 00:54:00;;;;;;;6.22;3.30;;;333.10;2329.60;;;;;;5052001;28;20399;-76
2021/11/06 00:56:26;;;;;;;7.93;4.47;;;333.10;2329.60;;;;;;5051446;28;20411;-76
2021/11/06 00:58:51;;;;;;;5.75;3.90;;;333.00;2329.60;;;;;;5049172;28;20079;-74
2021/11/06 01:01:17;;;;;;;4.93;3.10;;;333.00;2329.60;;;;;;5048479;28;20020;-76
2021/11/06 01:03:43;;;;;;;8.13;3.90;;;333.00;2329.60;;;;;;5050504;28;20460;-76
2021/11/06 01:06:09;;;;;;;10.25;6.15;;;333.00;2329.60;;;;;;5053079;28;20095;-76
2021/11/06 01:08:35;;;;;;;13.32;8.70;;;333.00;2329.60;;;;;;5052132;28;20051;-76
2021/11/06 01:11:01;;;;;;;11.13;5.22;;;332.90;2329.60;;;;;;5052712;28;20028;-77
2021/11/06 01:13:27;;;;;;;5.57;3.60;;;333.10;2329.60;;;;;;5051928;28;20025;-78
2021/11/06 01:15:52;;;;;;;6.95;4.13;;;333.00;2329.60;;;;;;5051914;28;20048;-77
2021/11/06 01:18:18;;;;;;;6.15;3.95;;;333.00;2329.60;;;;;;5051629;28;20025;-76
2021/11/06 01:20:44;;;;;;;4.65;2.97;;;332.90;2329.60;;;;;;5051903;28;20028;-81
2021/11/06 01:23:10;;;;;;;4.95;3.15;;;332.90;2329.60;;;;;;5051941;28;20048;-76
2021/11/06 01:25:37;;;;;;;4.68;3.15;;;332.90;2329.60;;;;;;5051606;28;20116;-76
2021/11/06 01:28:03;;;;;;;6.80;4.18;;;332.90;2329.60;;;;;;5051911;28;20024;-79
2021/11/06 01:30:29;;;;;;;4.45;2.65;;;333.00;2329.60;;;;;;5053122;28;20025;-78
2021/11/06 01:32:55;;;;;;;4.45;2.70;;;333.00;2329.60;;;;;;5052748;28;20117;-78
2021/11/06 01:35:20;;;;;;;5.80;3.30;;;333.00;2329.60;;;;;;5052802;28;20096;-78
2021/11/06 01:37:47;;;;;;;6.13;2.50;;;333.10;2329.60;;;;;;5051605;28;20020;-78
2021/11/06 01:40:16;;;;;;;4.88;2.90;;;333.10;2329.60;;;;;;5052993;28;20020;-78
2021/11/06 01:42:42;;;;;;;8.15;3.60;;;333.00;2329.60;;;;;;5056953;28;20044;-78
2021/11/06 01:45:13;;;;;;;5.60;3.45;;;332.90;2329.60;;;;;;5055117;28;20419;-79
2021/11/06 01:47:38;;;;;;;7.80;4.03;;;332.90;2329.60;;;;;;5056114;28;20030;-77
2021/11/06 01:50:06;;;;;;;5.47;3.35;;;332.90;2329.60;;;;;;5055132;28;20025;-78
2021/11/06 01:52:32;;;;;;;4.55;2.85;;;332.90;2329.60;;;;;;5054943;28;20017;-79
2021/11/06 01:54:58;;;;;;;5.82;3.67;;;332.90;2329.60;;;;;;5056407;28;20047;-78
2021/11/06 01:57:24;;;;;;;5.82;3.58;;;332.80;2329.60;;;;;;5055033;28;20471;-79
2021/11/06 01:59:51;;;;;;;7.05;3.92;;;332.80;2329.60;;;;;;5054730;28;20071;-80
2021/11/06 02:02:17;;;;;;;5.13;3.63;;;308.10;2304.00;;;;;;5054819;28;20040;-79
2021/11/06 02:04:43;;;;;;;5.70;3.60;;;308.10;2304.00;;;;;;5055020;28;20081;-77
2021/11/06 02:07:09;;;;;;;4.63;2.83;;;308.10;2304.00;;;;;;5055595;28;20354;-78
2021/11/06 02:09:34;;;;;;;5.10;3.17;;;308.10;2304.00;;;;;;5054837;28;20017;-79
2021/11/06 02:12:00;;;;;;;5.15;3.20;;;308.10;2304.00;;;;;;5056144;28;20028;-78
2021/11/06 02:14:26;;;;;;;6.97;3.30;;;308.10;2304.00;;;;;;5055742;28;20029;-80
2021/11/06 02:16:52;;;;;;;4.90;2.53;;;308.10;2304.00;;;;;;5055968;28;20024;-79
2021/11/06 02:19:29;;;;;;;4.55;2.80;;;308.10;2304.00;;;;;;5054822;28;20092;-79
2021/11/06 02:21:57;;;;;;;4.25;2.70;;;308.00;2304.00;;;;;;5054321;28;20021;-80
2021/11/06 02:24:23;;;;;;;6.63;2.70;;;307.90;2304.00;;;;;;5054516;28;20039;-78
2021/11/06 02:26:51;;;;;;;4.00;2.45;;;308.00;2304.00;;;;;;5054496;28;20452;-78
2021/11/06 02:29:17;;;;;;;5.07;2.70;;;308.00;2304.00;;;;;;5054197;28;20013;-79
2021/11/06 02:31:43;;;;;;;6.03;2.72;;;332.80;2329.60;;;;;;5056007;28;20028;-78
2021/11/06 02:34:10;;;;;;;4.85;2.83;;;308.00;2304.00;;;;;;5054389;28;20466;-78
2021/11/06 02:36:37;;;;;;;5.10;2.10;;;307.90;2304.00;;;;;;5054017;28;20112;-79
2021/11/06 02:39:05;;;;;;;7.22;3.03;;;308.00;2304.00;;;;;;5055497;28;20028;-79
2021/11/06 02:41:31;;;;;;;4.47;2.97;;;307.90;2304.00;;;;;;5053943;28;20028;-79
2021/11/06 02:43:59;;;;;;;5.43;3.85;;;308.00;2304.00;;;;;;5054217;28;20445;-78
2021/11/06 02:46:25;;;;;;;5.72;3.28;;;307.90;2304.00;;;;;;5054156;28;20412;-78
2021/11/06 02:48:51;;;;;;;8.07;3.17;;;307.90;2304.00;;;;;;5053835;28;20478;-79
2021/11/06 02:51:17;;;;;;;5.80;3.05;;;307.90;2304.00;;;;;;5053634;28;20064;-80
2021/11/06 02:53:43;;;;;;;8.57;3.20;;;307.90;2304.00;;;;;;5054052;28;20098;-78
2021/11/06 02:56:09;;;;;;;5.40;3.50;;;308.00;2304.00;;;;;;5054905;28;20028;-78
2021/11/06 02:58:35;;;;;;;4.50;2.65;;;307.90;2304.00;;;;;;5055180;28;20021;-79
2021/11/06 03:01:02;;;;;;;4.97;2.83;;;307.90;2304.00;;;;;;5054021;28;20024;-78
2021/11/06 03:03:28;;;;;;;5.43;2.80;;;307.90;2304.00;;;;;;5055022;28;20045;-79
2021/11/06 03:05:54;;;;;;;5.43;2.95;;;307.90;2304.00;;;;;;5053798;28;20036;-78
2021/11/06 03:08:20;;;;;;;6.05;2.65;;;307.90;2304.00;;;;;;5053695;28;20377;-81
2021/11/06 03:10:45;;;;;;;5.32;3.05;;;307.90;2304.00;;;;;;5053399;28;20052;-78
2021/11/06 03:13:12;;;;;;;5.10;3.20;;;307.80;2304.00;;;;;;5053789;28;20079;-78
2021/11/06 03:15:37;;;;;;;4.45;2.92;;;307.80;2304.00;;;;;;5054884;28;20027;-79
2021/11/06 03:18:03;;;;;;;5.80;2.80;;;307.80;2304.00;;;;;;5053296;28;20104;-78
2021/11/06 03:20:32;;;;;;;5.13;2.95;;;307.80;2304.00;;;;;;5053192;28;20025;-79
2021/11/06 03:22:58;;;;;;;5.10;2.92;;;307.70;2304.00;;;;;;5053377;28;20060;-78
2021/11/06 03:25:27;;;;;;;6.25;2.95;;;307.70;2304.00;;;;;;5053095;28;20435;-79
2021/11/06 03:27:53;;;;;;;5.22;2.90;;;307.70;2304.00;;;;;;5053330;28;20055;-77
2021/11/06 03:30:19;;;;;;;4.43;2.65;;;307.70;2304.00;;;;;;5054327;28;20056;-78
2021/11/06 03:32:45;;;;;;;4.57;2.80;;;307.70;2304.00;;;;;;5054523;28;20021;-78
2021/11/06 03:35:11;;;;;;;6.22;2.85;;;307.70;2304.00;;;;;;5054231;28;20062;-78
2021/11/06 03:37:38;;;;;;;5.53;2.55;;;307.70;2304.00;;;;;;5055032;28;20021;-78
2021/11/06 03:40:05;;;;;;;6.55;2.92;;;307.40;2304.00;;;;;;5059316;28;20017;-77
2021/11/06 03:42:31;;;;;;;4.93;2.72;;;307.70;2304.00;;;;;;5059702;28;20041;-77
2021/11/06 03:44:57;;;;;;;4.47;2.78;;;307.70;2304.00;;;;;;5060181;28;20091;-77
2021/11/06 03:47:23;;;;;;;5.22;2.72;;;307.80;2304.00;;;;;;5061014;28;20080;-77
2021/11/06 03:49:49;;;;;;;4.32;2.67;;;307.70;2304.00;;;;;;5059499;28;20112;-77
2021/11/06 03:52:15;;;;;;;4.82;2.78;;;307.70;2304.00;;;;;;5059895;28;20025;-78
2021/11/06 03:54:42;;;;;;;9.57;3.20;;;307.70;2304.00;;;;;;5062253;28;20029;-77
2021/11/06 03:57:08;;;;;;;5.85;3.20;;;307.70;2304.00;;;;;;5060044;28;20024;-78
2021/11/06 03:59:34;;;;;;;5.82;3.47;;;307.70;2304.00;;;;;;5059485;28;20017;-78
2021/11/06 04:02:00;;;;;;;4.53;3.00;;;307.60;2304.00;;;;;;5053271;28;20080;-78
2021/11/06 04:04:26;;;;;;;6.47;3.33;;;307.60;2304.00;;;;;;5052785;28;20068;-80
2021/11/06 04:06:52;;;;;;;6.47;3.55;;;307.60;2304.00;;;;;;5053680;28;20460;-79
2021/11/06 04:09:18;;;;;;;7.28;3.83;;;307.50;2304.00;;;;;;5053987;28;20083;-80
2021/11/06 04:11:43;;;;;;;6.65;3.15;;;307.60;2304.00;;;;;;5052400;28;20163;-79
2021/11/06 04:14:09;;;;;;;5.53;3.08;;;307.60;2304.00;;;;;;5053387;28;20024;-80
2021/11/06 04:16:35;;;;;;;5.32;3.20;;;307.60;2304.00;;;;;;5053671;28;20036;-78
2021/11/06 04:19:01;;;;;;;4.55;3.03;;;307.60;2304.00;;;;;;5052620;28;20021;-78
2021/11/06 04:21:27;;;;;;;5.38;3.53;;;307.70;2304.00;;;;;;5053221;28;20341;-80
2021/11/06 04:23:53;;;;;;;4.85;3.50;;;307.70;2304.00;;;;;;5052490;28;20025;-78
2021/11/06 04:26:18;;;;;;;7.97;4.25;;;307.70;2304.00;;;;;;5052087;28;20026;-78
2021/11/06 04:28:44;;;;;;;4.72;3.47;;;307.80;2304.00;;;;;;5052272;28;20350;-79
2021/11/06 04:31:10;;;;;;;6.90;4.63;;;307.80;2304.00;;;;;;5052465;28;20021;-78
2021/11/06 04:33:36;;;;;;;6.35;3.70;;;307.80;2304.00;;;;;;5052216;28;20032;-79
2021/11/06 04:36:02;;;;;;;5.35;3.58;;;307.80;2304.00;;;;;;5053711;28;20449;-79
2021/11/06 04:38:28;;;;;;;4.72;3.60;;;307.80;2304.00;;;;;;5052407;28;20488;-78
2021/11/06 04:40:54;;;;;;;7.30;4.00;;;307.90;2304.00;;;;;;5052022;28;20029;-78
2021/11/06 04:43:20;;;;;;;6.43;4.72;;;307.90;2304.00;;;;;;5052389;28;20056;-80
2021/11/06 04:45:46;;;;;;;7.78;4.95;;;307.80;2304.00;;;;;;5052418;28;20135;-79
2021/11/06 04:48:11;;;;;;;8.38;4.95;;;307.80;2304.00;;;;;;5052053;28;20153;-80
2021/11/06 04:50:37;;;;;;;7.95;5.07;;;307.80;2304.00;;;;;;5053262;28;20365;-78
2021/11/06 04:53:03;;;;;;;5.97;4.20;;;307.70;2304.00;;;;;;5053491;28;20365;-80
2021/11/06 04:55:29;;;;;;;5.85;4.20;;;307.80;2304.00;;;;;;5052801;28;20053;-79
2021/11/06 04:57:55;;;;;;;9.50;6.13;;;307.90;2304.00;;;;;;5052249;28;20028;-79
2021/11/06 05:00:21;;;;;;;9.63;7.13;;;307.80;2304.00;;;;;;5053248;28;20021;-78
2021/11/06 05:02:47;;;;;;;12.02;8.25;;;307.80;2304.00;;;;;;5051307;28;20045;-79
2021/11/06 05:05:13;;;;;;;13.15;9.65;;;307.70;2304.00;;;;;;5051986;28;20025;-79
2021/11/06 05:07:39;;;;;;;11.10;9.13;;;307.70;2304.00;;;;;;5052036;28;20025;-78
2021/11/06 05:10:07;;;;;;;11.38;9.95;;;307.60;2304.00;;;;;;5051737;28;20107;-80
2021/11/06 05:12:34;;;;;;;13.30;10.38;;;307.70;2304.00;;;;;;5051777;28;20025;-79
2021/11/06 05:14:59;;;;;;;13.20;10.35;;;307.70;2304.00;;;;;;5055318;28;20035;-79
2021/11/06 05:17:25;;;;;;;12.48;10.38;;;307.70;2304.00;;;;;;5055232;28;20407;-79
2021/11/06 05:19:52;;;;;;;11.80;9.70;;;307.70;2304.00;;;;;;5057104;28;20052;-79
2021/11/06 05:22:18;;;;;;;12.95;9.48;;;307.80;2304.00;;;;;;5056482;28;20017;-79
2021/11/06 05:24:44;;;;;;;16.98;11.02;;;307.80;2304.00;;;;;;5056836;28;20040;-80
2021/11/06 05:27:10;;;;;;;14.07;10.40;;;307.70;2304.00;;;;;;5055588;28;20017;-78
2021/11/06 05:29:35;;;;;;;11.32;8.32;;;307.60;2304.00;;;;;;5056565;28;20025;-79
2021/11/06 05:32:01;;;;;;;7.97;5.93;;;307.70;2304.00;;;;;;5056794;28;20104;-78
2021/11/06 05:34:27;;;;;;;15.07;10.70;;;307.70;2304.00;;;;;;5055485;28;20024;-80
2021/11/06 05:36:53;;;;;;;13.85;8.27;;;307.80;2304.00;;;;;;5055250;28;20083;-79
2021/11/06 05:39:19;;;;;;;15.65;9.70;;;307.70;2304.00;;;;;;5055364;28;20028;-79
2021/11/06 05:41:45;;;;;;;14.38;10.27;;;307.70;2304.00;;;;;;5055342;28;20021;-80
2021/11/06 05:44:10;;;;;;;14.65;10.10;;;307.70;2304.00;;;;;;5056462;28;20029;-79
2021/11/06 05:46:36;;;;;;;17.92;8.90;;;307.80;2304.00;;;;;;5055304;28;20041;-78
2021/11/06 05:49:03;;;;;;;11.68;8.25;;;307.80;2304.00;;;;;;5056558;28;20017;-77
2021/11/06 05:51:28;;;;;;;22.83;12.15;;;307.80;2304.00;;;;;;5054939;28;20029;-79
2021/11/06 05:53:54;;;;;;;33.25;17.80;;;307.80;2304.00;;;;;;5055072;28;20025;-78
2021/11/06 05:56:20;;;;;;;19.60;12.48;;;307.80;2304.00;;;;;;5055074;28;20075;-77
2021/11/06 05:58:47;;;;;;;15.35;9.00;;;307.80;2304.00;;;;;;5054732;28;20024;-77
2021/11/06 06:01:13;;;;;;;17.23;11.60;;;307.70;2304.00;;;;;;5054741;28;20017;-78
2021/11/06 06:03:39;;;;;;;10.35;7.20;;;332.80;2329.60;;;;;;5056466;28;20032;-78
2021/11/06 06:06:04;;;;;;;10.40;6.18;;;307.60;2304.00;;;;;;5054556;28;20021;-77
2021/11/06 06:08:31;;;;;;;9.93;6.88;;;307.60;2304.00;;;;;;5056132;28;20114;-78
2021/11/06 06:10:57;;;;;;;13.32;9.35;;;307.60;2304.00;;;;;;5056391;28;20032;-78
2021/11/06 06:13:25;;;;;;;14.60;8.13;;;307.60;2304.00;;;;;;5055819;28;20021;-78
2021/11/06 06:15:51;;;;;;;11.05;7.93;;;307.60;2304.00;;;;;;5054846;28;20123;-78
2021/11/06 06:18:16;;;;;;;17.48;12.35;;;307.80;2304.00;;;;;;5055337;28;20487;-78
2021/11/06 06:20:42;;;;;;;22.45;13.18;;;307.70;2304.00;;;;;;5055674;28;20028;-77
2021/11/06 06:23:08;;;;;;;20.70;14.15;;;307.70;2304.00;;;;;;5055843;28;20021;-79
2021/11/06 06:25:34;;;;;;;28.95;19.75;;;307.70;2304.00;;;;;;5053384;28;20444;-77
2021/11/06 06:28:00;;;;;;;51.95;41.15;;;307.80;2304.00;;;;;;5054535;28;20017;-79
2021/11/06 06:30:25;;;;;;;20.60;13.77;;;307.60;2304.00;;;;;;5054460;28;20453;-78
2021/11/06 06:32:51;;;;;;;38.80;29.98;;;307.60;2304.00;;;;;;5055090;28;20021;-78
2021/11/06 06:35:17;;;;;;;32.72;25.30;;;307.50;2304.00;;;;;;5054475;28;20032;-77
2021/11/06 06:37:43;;;;;;;26.90;22.60;;;307.60;2304.00;;;;;;5054278;28;20112;-79
2021/11/06 06:40:10;;;;;;;20.92;16.75;;;307.60;2304.00;;;;;;5053962;28;20028;-80
2021/11/06 06:42:36;;;;;;;27.02;21.67;;;307.40;2304.00;;;;;;5054231;28;20028;-79
2021/11/06 06:45:04;;;;;;;29.67;24.90;;;307.20;2304.00;;;;;;5054050;28;20031;-80
2021/11/06 06:47:30;;;;;;;34.40;27.48;;;307.20;2304.00;;;;;;5054871;28;20029;-78
2021/11/06 06:49:56;;;;;;;23.27;17.55;;;307.30;2304.00;;;;;;5053831;28;20108;-77
2021/11/06 06:52:24;;;;;;;22.23;19.60;;;307.40;2304.00;;;;;;5054031;28;20074;-78
2021/11/06 06:54:50;;;;;;;27.70;21.42;;;307.20;2304.00;;;;;;5053661;28;20036;-78
2021/11/06 06:57:16;;;;;;;27.45;21.20;;;307.30;2304.00;;;;;;5054852;28;20025;-78
2021/11/06 06:59:41;;;;;;;35.42;25.25;;;307.30;2304.00;;;;;;5054866;28;20024;-77
2021/11/06 07:02:07;;;;;;;29.10;21.75;;;282.50;2278.40;;;;;;5054829;28;20139;-79
2021/11/06 07:04:34;;;;;;;42.03;31.42;;;282.50;2278.40;;;;;;5054989;28;20025;-78
2021/11/06 07:07:00;;;;;;;31.33;23.52;;;282.50;2278.40;;;;;;5053747;28;20025;-78
2021/11/06 07:09:26;;;;;;;31.48;20.92;;;282.50;2278.40;;;;;;5054322;28;20056;-77
2021/11/06 07:11:53;;;;;;;34.53;23.55;;;282.50;2278.40;;;;;;5054960;28;20021;-78
2021/11/06 07:14:20;;;;;;;21.60;17.25;;;307.20;2304.00;;;;;;5053321;28;20032;-77
2021/11/06 07:16:47;;;;;;;25.45;16.23;;;307.30;2304.00;;;;;;5053497;28;20117;-78
2021/11/06 07:19:14;;;;;;;32.55;22.15;;;307.50;2304.00;;;;;;5054980;28;20452;-76
2021/11/06 07:21:40;;;;;;;27.60;17.83;;;307.50;2304.00;;;;;;5054382;28;20365;-78
2021/11/06 07:24:06;;;;;;;20.45;16.70;;;307.40;2304.00;;;;;;5053391;28;20021;-77
2021/11/06 07:26:33;;;;;;;24.80;16.70;;;307.40;2304.00;;;;;;5053326;28;20024;-77
2021/11/06 07:28:59;;;;;;;24.50;20.30;;;307.60;2304.00;;;;;;5053258;28;20121;-77
2021/11/06 07:31:24;;;;;;;26.05;19.30;;;307.30;2304.00;;;;;;5054235;28;20025;-77
2021/11/06 07:33:53;;;;;;;28.05;19.70;;;307.40;2304.00;;;;;;5052990;28;20021;-78
2021/11/06 07:36:20;;;;;;;27.58;22.05;;;307.50;2304.00;;;;;;5052750;28;20040;-77
2021/11/06 07:38:46;;;;;;;26.98;19.75;;;307.50;2304.00;;;;;;5054776;28;20025;-79
2021/11/06 07:41:12;;;;;;;32.55;22.20;;;307.40;2304.00;;;;;;5054018;28;20025;-78
2021/11/06 07:43:38;;;;;;;33.80;26.35;;;307.60;2304.00;;;;;;5053020;28;20455;-77
2021/11/06 07:46:05;;;;;;;27.13;20.30;;;307.70;2304.00;;;;;;5053927;28;20071;-77
2021/11/06 07:48:31;;;;;;;51.42;32.25;;;307.60;2304.00;;;;;;5053094;28;20064;-77
2021/11/06 07:50:57;;;;;;;42.13;28.40;;;307.70;2304.00;;;;;;5054378;28;20020;-77
2021/11/06 07:53:23;;;;;;;30.75;24.25;;;307.60;2304.00;;;;;;5052595;28;20170;-78
2021/11/06 07:55:49;;;;;;;30.02;23.40;;;307.20;2304.00;;;;;;5054041;28;20433;-77
2021/11/06 07:58:15;;;;;;;32.15;24.80;;;307.90;2304.00;;;;;;5052770;28;20017;-80
2021/11/06 08:00:42;;;;;;;27.02;21.30;;;307.70;2304.00;;;;;;5053705;28;20035;-77
2021/11/06 08:03:08;;;;;;;28.42;20.67;;;307.70;2304.00;;;;;;5054028;28;20365;-77
2021/11/06 08:05:35;;;;;;;29.10;21.40;;;307.70;2304.00;;;;;;5052619;28;20036;-78
2021/11/06 08:08:03;;;;;;;33.97;23.08;;;307.70;2304.00;;;;;;5052127;28;20481;-77
2021/11/06 08:10:29;;;;;;;35.38;26.23;;;307.60;2304.00;;;;;;5052706;28;20369;-78
2021/11/06 08:12:59;;;;;;;32.15;22.00;;;307.70;2304.00;;;;;;5053921;28;20040;-80
2021/11/06 08:15:25;;;;;;;33.03;25.65;;;307.70;2304.00;;;;;;5053531;28;20404;-79
2021/11/06 08:17:53;;;;;;;32.65;23.65;;;307.80;2304.00;;;;;;5052528;28;20025;-78
2021/11/06 08:20:20;;;;;;;31.33;25.17;;;307.60;2304.00;;;;;;5052661;28;20372;-78
2021/11/06 08:22:46;;;;;;;37.08;26.35;;;307.70;2304.00;;;;;;5053416;28;20032;-79
2021/11/06 08:25:16;;;;;;;30.98;27.17;;;307.60;2304.00;;;;;;5053733;28;20017;-77
2021/11/06 08:27:43;;;;;;;30.25;24.05;;;307.50;2304.00;;;;;;5052389;28;20025;-77
2021/11/06 08:30:09;;;;;;;35.10;22.73;;;307.50;2304.00;;;;;;5052263;28;20021;-77
2021/11/06 08:32:35;;;;;;;38.22;27.45;;;307.50;2304.00;;;;;;5052459;28;20149;-77
2021/11/06 08:35:00;;;;;;;39.80;31.25;;;307.50;2304.00;;;;;;5053439;28;20510;-77
2021/11/06 08:37:26;;;;;;;30.13;23.00;;;307.30;2304.00;;;;;;5052315;28;20021;-77
2021/11/06 08:39:52;;;;;;;33.03;23.90;;;307.30;2304.00;;;;;;5052366;28;20021;-78
2021/11/06 08:42:18;;;;;;;33.30;23.02;;;307.30;2304.00;;;;;;5053234;28;20024;-75
2021/11/06 08:44:43;;;;;;;32.90;25.13;;;307.20;2304.00;;;;;;5053407;28;20032;-76
2021/11/06 08:47:09;;;;;;;30.60;20.95;;;307.30;2304.00;;;;;;5053527;28;20056;-78
2021/11/06 08:49:35;;;;;;;32.20;24.98;;;307.40;2304.00;;;;;;5054608;28;20428;-77
2021/11/06 08:52:01;;;;;;;34.92;23.40;;;307.30;2304.00;;;;;;5057222;28;20092;-77
2021/11/06 08:54:27;;;;;;;34.53;22.00;;;307.40;2304.00;;;;;;5056196;28;20029;-75
2021/11/06 08:56:53;;;;;;;31.65;21.55;;;307.50;2304.00;;;;;;5057427;28;20067;-75
2021/11/06 08:59:20;;;;;;;30.00;22.83;;;307.60;2304.00;;;;;;5057276;28;20021;-75
2021/11/06 09:01:52;;;;;;;45.78;30.17;;;307.20;2304.00;;;;;;5055841;28;20044;-76
2021/11/06 09:04:18;;;;;;;73.50;44.47;;;307.40;2304.00;;;;;;5055672;28;20420;-75
2021/11/06 09:06:45;;;;;;;50.83;33.42;;;307.60;2304.00;;;;;;5056925;28;20036;-75
2021/11/06 09:09:14;;;;;;;43.28;27.98;;;307.60;2304.00;;;;;;5056878;28;20025;-77
2021/11/06 09:11:41;;;;;;;37.05;28.60;;;307.60;2304.00;;;;;;5056833;28;20460;-75
2021/11/06 09:14:09;;;;;;;45.88;31.83;;;307.60;2304.00;;;;;;5055770;28;20023;-75
2021/11/06 09:16:35;;;;;;;44.80;32.88;;;307.70;2304.00;;;;;;5055753;28;20027;-76
2021/11/06 09:19:02;;;;;;;39.97;30.77;;;307.60;2304.00;;;;;;5055514;28;20338;-77
2021/11/06 09:21:29;;;;;;;43.88;34.63;;;307.70;2304.00;;;;;;5056945;28;20021;-75
2021/11/06 09:24:01;;;;;;;39.00;30.85;;;307.70;2304.00;;;;;;5055240;28;20179;-76
2021/11/06 09:26:28;;;;;;;36.72;28.15;;;307.70;2304.00;;;;;;5053266;28;20075;-76
2021/11/06 09:28:54;;;;;;;32.28;24.45;;;307.80;2304.00;;;;;;5056099;28;20032;-75
2021/11/06 09:31:20;;;;;;;36.30;24.58;;;307.80;2304.00;;;;;;5053862;28;20029;-76
2021/11/06 09:33:46;;;;;;;29.20;24.27;;;307.90;2304.00;;;;;;5055094;28;20017;-76
2021/11/06 09:36:12;;;;;;;22.35;17.00;;;307.90;2304.00;;;;;;5052466;28;20472;-75
2021/11/06 09:38:39;;;;;;;36.13;26.60;;;307.80;2304.00;;;;;;5055151;28;20017;-75
2021/11/06 09:41:07;;;;;;;44.13;34.03;;;308.00;2304.00;;;;;;5051916;28;20021;-75
2021/11/06 09:43:34;;;;;;;48.50;35.03;;;307.80;2304.00;;;;;;5055219;28;20461;-77
2021/11/06 09:46:00;;;;;;;41.90;31.27;;;307.60;2304.00;;;;;;5051566;28;20043;-76
2021/11/06 09:48:28;;;;;;;33.20;23.95;;;307.60;2304.00;;;;;;5055877;28;20538;-76
2021/11/06 09:50:58;;;;;;;31.52;24.67;;;307.60;2304.00;;;;;;5054273;28;20109;-77
2021/11/06 09:53:29;;;;;;;34.50;24.92;;;307.70;2304.00;;;;;;5051916;28;20452;-76
2021/11/06 09:55:56;;;;;;;33.55;22.77;;;307.80;2304.00;;;;;;5055187;28;20029;-76
2021/11/06 09:58:22;;;;;;;25.90;19.98;;;307.70;2304.00;;;;;;5055564;28;20025;-74
2021/11/06 10:00:48;;;;;;;27.08;20.00;;;307.90;2304.00;;;;;;5050175;28;20059;-75
2021/11/06 10:03:16;;;;;;;33.90;22.10;;;307.90;2304.00;;;;;;5053727;28;20043;-75
2021/11/06 10:06:21;;;;;;;31.38;20.55;;;307.90;2304.00;;;;;;5053608;28;20067;-76
2021/11/06 10:08:48;;;;;;;28.40;20.40;;;307.90;2304.00;;;;;;5025222;28;20034;-76
2021/11/06 10:11:17;;;;;;;36.97;24.08;;;307.90;2304.00;;;;;;5050935;28;20369;-76
2021/11/06 10:14:04;;;;;;;25.15;16.00;;;308.10;2304.00;;;;;;5051523;28;20017;-76
2021/11/06 10:16:34;;;;;;;32.10;19.90;;;308.10;2304.00;;;;;;5052807;28;20112;-76
2021/11/06 10:19:46;;;;;;;20.77;14.95;;;308.10;2304.00;;;;;;5051572;28;20013;-76
2021/11/06 10:22:14;;;;;;;15.70;11.98;;;332.80;2329.60;;;;;;5046721;28;20021;-76
2021/11/06 10:24:44;;;;;;;19.67;13.90;;;332.80;2329.60;;;;;;5053591;28;20392;-76
2021/11/06 10:27:17;;;;;;;16.70;10.63;;;332.90;2329.60;;;;;;5052843;28;20373;-76
2021/11/06 10:29:44;;;;;;;14.75;12.35;;;332.90;2329.60;;;;;;5051062;28;20059;-77
2021/11/06 10:32:10;;;;;;;27.00;17.85;;;332.90;2329.60;;;;;;5054463;28;20100;-76
2021/11/06 10:34:39;;;;;;;18.02;12.13;;;332.90;2329.60;;;;;;5051418;28;20495;-76
2021/11/06 10:37:12;;;;;;;20.95;14.68;;;333.10;2329.60;;;;;;5051724;28;20033;-77
2021/11/06 10:39:58;;;;;;;21.02;12.77;;;333.20;2329.60;;;;;;5053096;28;20115;-76
2021/11/06 10:42:25;;;;;;;23.40;15.10;;;333.20;2329.60;;;;;;5050981;28;20070;-76
2021/11/06 10:45:07;;;;;;;17.55;12.43;;;333.40;2329.60;;;;;;5054286;28;20479;-76
2021/11/06 10:47:56;;;;;;;37.93;25.97;;;333.50;2329.60;;;;;;5049765;28;20366;-77
2021/11/06 10:50:48;;;;;;;26.48;16.23;;;333.70;2329.60;;;;;;5053278;28;20075;-78
2021/11/06 10:53:39;;;;;;;29.30;22.30;;;358.50;2329.60;;;;;;5054020;28;20092;-77
2021/11/06 10:56:14;;;;;;;19.00;13.05;;;358.60;2329.60;;;;;;5043956;28;20033;-78
2021/11/06 10:58:44;;;;;;;58.28;28.45;;;358.50;2329.60;;;;;;5050710;28;20029;-78
2021/11/06 11:01:13;;;;;;;44.25;21.27;;;358.50;2329.60;;;;;;5053122;28;20079;-77
2021/11/06 11:03:41;;;;;;;23.00;14.32;;;358.50;2329.60;;;;;;5050435;28;20342;-79
2021/11/06 11:06:13;;;;;;;16.00;11.65;;;358.50;2329.60;;;;;;5052080;28;20140;-77
2021/11/06 11:08:49;;;;;;;16.33;12.93;;;358.50;2329.60;;;;;;5053781;28;20025;-77
2021/11/06 11:11:21;;;;;;;13.25;8.93;;;358.50;2329.60;;;;;;5051752;28;20021;-77
2021/11/06 11:13:57;;;;;;;9.82;7.97;;;358.50;2329.60;;;;;;5052793;28;20029;-77
2021/11/06 11:16:24;;;;;;;20.48;14.00;;;333.70;2329.60;;;;;;5054632;28;20025;-78
2021/11/06 11:18:55;;;;;;;11.57;8.57;;;358.50;2329.60;;;;;;5053519;28;20456;-77
2021/11/06 11:21:31;;;;;;;12.75;8.63;;;358.60;2329.60;;;;;;5053573;28;20021;-78
2021/11/06 11:24:03;;;;;;;16.55;10.18;;;358.40;2329.60;;;;;;5053144;28;20021;-76
2021/11/06 11:26:35;;;;;;;13.90;11.02;;;358.50;2329.60;;;;;;5053485;28;20039;-76
2021/11/06 11:29:02;;;;;;;14.07;9.40;;;358.50;2329.60;;;;;;5054660;28;20025;-76
2021/11/06 11:31:29;;;;;;;16.05;10.60;;;358.50;2329.60;;;;;;5054468;28;20250;-76
2021/11/06 11:33:56;;;;;;;17.02;10.90;;;358.60;2329.60;;;;;;5053144;28;20021;-77
2021/11/06 11:36:28;;;;;;;11.63;9.73;;;358.70;2329.60;;;;;;5053161;28;20053;-76
2021/11/06 11:38:56;;;;;;;15.87;10.80;;;358.80;2329.60;;;;;;5052841;28;20021;-77
2021/11/06 11:41:49;;;;;;;15.45;10.52;;;358.70;2329.60;;;;;;5053010;28;20269;-77
2021/11/06 11:44:40;;;;;;;15.57;10.52;;;358.90;2329.60;;;;;;5053688;28;20025;-77
2021/11/06 11:47:20;;;;;;;14.02;10.05;;;358.70;2329.60;;;;;;5054534;28;20083;-77
2021/11/06 11:49:49;;;;;;;19.02;12.45;;;358.60;2329.60;;;;;;5053052;28;20416;-78
2021/11/06 11:52:25;;;;;;;17.75;13.02;;;358.70;2329.60;;;;;;5053852;28;20016;-76
2021/11/06 11:55:00;;;;;;;18.33;14.15;;;358.80;2329.60;;;;;;5054130;28;20436;-78
2021/11/06 11:57:26;;;;;;;17.27;13.43;;;358.90;2329.60;;;;;;5052939;28;20047;-77
2021/11/06 11:59:53;;;;;;;20.65;13.73;;;358.90;2329.60;;;;;;5052457;28;20028;-77
2021/11/06 12:02:21;;;;;;;18.08;13.32;;;358.90;2329.60;;;;;;5052596;28;20049;-79
2021/11/06 12:04:48;;;;;;;20.95;13.00;;;358.80;2329.60;;;;;;5052393;28;20021;-79
2021/11/06 12:07:23;;;;;;;20.13;13.63;;;358.70;2329.60;;;;;;5052741;28;20029;-79
2021/11/06 12:09:49;;;;;;;19.02;13.15;;;358.70;2329.60;;;;;;5052765;28;20028;-80